Time;durP1;ratioP1;P1;durP2;ratioP2;P2;SDS_P1;SDS_P2;PMS_P1;PMS_P2;Temp;Humidity;BMP_temperature;BMP_pressure;BME280_temperature;BME280_humidity;BME280_pressure;Samples;Min_cycle;Max_cycle;Signal;HPM_P1;HPM_P2
2022/06/12 00:00:17;;;;;;;14.95;3.33;;;12.40;99.90;;;;;;5053029;28;20041;-85
2022/06/12 00:02:43;;;;;;;13.02;3.33;;;12.40;99.90;;;;;;5052008;28;20386;-80
2022/06/12 00:05:11;;;;;;;12.80;2.80;;;12.30;99.90;;;;;;5051941;28;20534;-80
2022/06/12 00:07:37;;;;;;;11.80;3.03;;;12.20;99.90;;;;;;5052713;28;20049;-80
2022/06/12 00:10:03;;;;;;;11.07;3.25;;;12.20;99.90;;;;;;5052703;28;20102;-80
2022/06/12 00:12:29;;;;;;;8.20;2.78;;;12.20;99.90;;;;;;5051982;28;20127;-80
2022/06/12 00:14:55;;;;;;;13.57;3.00;;;12.10;99.90;;;;;;5052512;28;20183;-79
2022/06/12 00:17:21;;;;;;;11.88;2.80;;;12.10;99.90;;;;;;5051347;28;20060;-80
2022/06/12 00:19:49;;;;;;;10.75;3.22;;;12.10;99.90;;;;;;5051535;28;20105;-79
2022/06/12 00:22:16;;;;;;;13.52;2.97;;;12.10;99.90;;;;;;5051660;28;20045;-80
2022/06/12 00:24:42;;;;;;;9.20;2.83;;;12.10;99.90;;;;;;5051216;28;20495;-80
2022/06/12 00:27:07;;;;;;;10.25;2.50;;;12.00;99.90;;;;;;5051311;28;20044;-80
2022/06/12 00:29:35;;;;;;;11.65;3.00;;;12.00;99.90;;;;;;5052447;28;20044;-80
2022/06/12 00:32:13;;;;;;;12.73;2.90;;;11.90;99.90;;;;;;5052840;28;20063;-80
2022/06/12 00:34:48;;;;;;;6.65;2.60;;;11.90;99.90;;;;;;5052546;28;20148;-80
2022/06/12 00:37:15;;;;;;;9.05;3.33;;;11.90;99.90;;;;;;5052147;28;20041;-79
2022/06/12 00:39:42;;;;;;;12.88;3.47;;;11.80;99.90;;;;;;5051324;28;20053;-79
2022/06/12 00:42:18;;;;;;;14.50;3.03;;;11.90;99.90;;;;;;5051571;28;20388;-79
2022/06/12 00:44:44;;;;;;;10.10;2.88;;;11.70;99.90;;;;;;5051263;28;20463;-79
2022/06/12 00:47:15;;;;;;;8.25;2.72;;;11.70;99.90;;;;;;5052462;28;20119;-80
2022/06/12 00:49:50;;;;;;;12.35;3.30;;;11.60;99.90;;;;;;5051245;28;20127;-80
2022/06/12 00:52:29;;;;;;;15.25;3.15;;;11.60;99.90;;;;;;5051510;28;20099;-79
2022/06/12 00:55:01;;;;;;;10.85;3.50;;;11.50;99.90;;;;;;5052352;28;20045;-79
2022/06/12 00:57:29;;;;;;;14.70;3.00;;;11.50;99.90;;;;;;5052400;28;20040;-79
2022/06/12 00:59:59;;;;;;;15.85;2.92;;;11.50;99.90;;;;;;5052236;28;20049;-80
2022/06/12 01:02:31;;;;;;;11.35;3.15;;;11.50;99.90;;;;;;5051129;28;20047;-79
2022/06/12 01:07:46;;;;;;;10.55;3.33;;;11.40;99.90;;;;;;5051315;28;20052;-79
2022/06/12 01:10:15;;;;;;;11.95;3.45;;;11.50;99.90;;;;;;5052304;28;20089;-79
2022/06/12 01:12:50;;;;;;;12.82;3.20;;;11.30;99.90;;;;;;5052119;28;20479;-79
2022/06/12 01:15:20;;;;;;;10.07;2.72;;;11.30;99.90;;;;;;5051027;28;20045;-80
2022/06/12 01:17:47;;;;;;;15.35;3.05;;;11.30;99.90;;;;;;5052127;28;20057;-79
2022/06/12 01:20:16;;;;;;;11.90;3.17;;;11.20;99.90;;;;;;5052091;28;20124;-79
2022/06/12 01:22:41;;;;;;;9.57;2.70;;;11.20;99.90;;;;;;5050812;28;20501;-79
2022/06/12 01:25:27;;;;;;;11.95;2.90;;;11.20;99.90;;;;;;5050729;28;20045;-79
2022/06/12 01:28:23;;;;;;;9.50;3.10;;;11.10;99.90;;;;;;5054831;28;20075;-79
2022/06/12 01:31:06;;;;;;;12.43;3.20;;;11.10;99.90;;;;;;5055736;28;20513;-79
2022/06/12 01:34:00;;;;;;;13.10;3.05;;;11.10;99.90;;;;;;5055651;28;20045;-80
2022/06/12 01:36:43;;;;;;;12.60;3.17;;;11.10;99.90;;;;;;5055648;28;20124;-80
2022/06/12 01:39:37;;;;;;;10.50;3.00;;;11.10;99.90;;;;;;5054388;28;20131;-79
2022/06/12 01:42:03;;;;;;;7.85;3.00;;;11.10;99.90;;;;;;5054741;28;20410;-79
2022/06/12 01:44:47;;;;;;;9.77;2.95;;;11.10;99.90;;;;;;5054344;28;20049;-79
2022/06/12 01:47:43;;;;;;;14.68;3.67;;;11.10;99.90;;;;;;5054537;28;20056;-79
2022/06/12 01:50:21;;;;;;;14.98;3.30;;;11.10;99.90;;;;;;5055479;28;20048;-79
2022/06/12 01:53:15;;;;;;;8.70;3.15;;;11.00;99.90;;;;;;5055240;28;20045;-79
2022/06/12 01:56:16;;;;;;;9.43;3.33;;;11.00;99.90;;;;;;5055338;28;20044;-79
2022/06/12 01:58:50;;;;;;;10.93;3.90;;;11.00;99.90;;;;;;5013382;28;20180;-79
2022/06/12 02:01:30;;;;;;;11.52;3.70;;;11.10;99.90;;;;;;4996990;28;20136;-80
2022/06/12 02:04:15;;;;;;;12.23;4.00;;;11.10;99.90;;;;;;5013466;28;20058;-79
2022/06/12 02:06:46;;;;;;;9.35;3.30;;;11.10;99.90;;;;;;4997061;28;20045;-79
2022/06/12 02:09:31;;;;;;;16.90;3.80;;;11.10;99.90;;;;;;5013181;28;20057;-79
2022/06/12 02:15:12;;;;;;;11.23;3.58;;;11.10;99.90;;;;;;5013047;28;20499;-79
2022/06/12 02:17:44;;;;;;;12.93;3.83;;;11.10;99.90;;;;;;4996477;28;20050;-79
2022/06/12 02:20:13;;;;;;;12.52;3.55;;;11.00;99.90;;;;;;4996665;28;20065;-79
2022/06/12 02:22:43;;;;;;;7.22;3.22;;;11.00;99.90;;;;;;5012882;28;20072;-79
2022/06/12 02:25:21;;;;;;;12.23;2.88;;;10.90;99.90;;;;;;5012902;28;20107;-79
2022/06/12 02:28:07;;;;;;;11.85;3.25;;;10.90;99.90;;;;;;4996685;28;20073;-79
2022/06/12 02:30:40;;;;;;;9.90;3.17;;;10.90;99.90;;;;;;4996267;28;20570;-80
2022/06/12 02:33:25;;;;;;;12.25;3.35;;;10.90;99.90;;;;;;4997966;28;20046;-79
2022/06/12 02:36:06;;;;;;;14.55;3.22;;;10.80;99.90;;;;;;5054427;28;20132;-79
2022/06/12 02:38:38;;;;;;;14.55;3.20;;;10.80;99.90;;;;;;5054148;28;20065;-81
2022/06/12 02:41:13;;;;;;;6.38;2.38;;;10.80;99.90;;;;;;5053039;28;20068;-80
2022/06/12 02:43:43;;;;;;;8.63;2.53;;;10.90;99.90;;;;;;5053348;28;20080;-79
2022/06/12 02:46:20;;;;;;;10.77;2.90;;;10.90;99.90;;;;;;5053091;28;20483;-79
2022/06/12 02:48:46;;;;;;;11.70;2.75;;;10.90;99.90;;;;;;5054360;28;20056;-79
2022/06/12 02:51:12;;;;;;;11.23;2.30;;;10.90;99.90;;;;;;5054180;28;20562;-79
2022/06/12 02:53:58;;;;;;;8.57;2.50;;;10.90;99.90;;;;;;5053130;28;20059;-79
2022/06/12 02:56:35;;;;;;;8.13;2.20;;;10.90;99.90;;;;;;5054274;28;20457;-78
2022/06/12 02:59:15;;;;;;;12.98;3.08;;;10.90;99.90;;;;;;5054129;28;20045;-79
2022/06/12 03:01:52;;;;;;;8.23;2.20;;;11.00;99.90;;;;;;5052752;28;20049;-79
2022/06/12 03:04:37;;;;;;;6.80;2.38;;;11.00;99.90;;;;;;5035939;28;20040;-79
2022/06/12 03:07:03;;;;;;;9.48;2.42;;;11.00;99.90;;;;;;5053718;28;20045;-79
2022/06/12 03:09:29;;;;;;;8.88;2.55;;;11.00;99.90;;;;;;5054072;28;20048;-79
2022/06/12 03:11:55;;;;;;;8.05;2.25;;;11.00;99.90;;;;;;5053891;28;20081;-79
2022/06/12 03:14:22;;;;;;;11.30;2.63;;;11.20;99.90;;;;;;5053051;28;20139;-79
2022/06/12 03:16:49;;;;;;;7.07;2.50;;;11.10;99.90;;;;;;5052371;28;20056;-79
2022/06/12 03:19:17;;;;;;;11.68;2.80;;;11.10;99.90;;;;;;5052810;28;20045;-81
2022/06/12 03:21:49;;;;;;;8.82;2.45;;;11.10;99.90;;;;;;5053769;28;20152;-79
2022/06/12 03:24:39;;;;;;;10.30;2.55;;;11.20;99.90;;;;;;5052755;28;20052;-79
2022/06/12 03:27:44;;;;;;;13.05;2.58;;;11.10;99.90;;;;;;5053557;28;20058;-79
2022/06/12 03:30:24;;;;;;;5.50;2.03;;;11.20;99.90;;;;;;4995402;28;20530;-79
2022/06/12 03:32:58;;;;;;;10.90;2.63;;;11.20;99.90;;;;;;4995757;28;20081;-79
2022/06/12 03:35:34;;;;;;;9.18;2.58;;;11.20;99.90;;;;;;4995350;28;20050;-79
2022/06/12 03:38:32;;;;;;;12.15;2.95;;;11.20;99.90;;;;;;4994923;28;20144;-79
2022/06/12 03:41:25;;;;;;;9.07;2.33;;;11.20;99.90;;;;;;5011498;28;20136;-79
2022/06/12 03:43:53;;;;;;;9.35;2.60;;;11.30;99.90;;;;;;4995232;28;20050;-79
2022/06/12 03:46:43;;;;;;;12.70;2.63;;;11.30;99.90;;;;;;4995001;28;20081;-79
2022/06/12 03:49:20;;;;;;;7.78;2.15;;;11.30;99.90;;;;;;4994618;28;20088;-79
2022/06/12 03:51:49;;;;;;;10.05;2.40;;;11.30;99.90;;;;;;4995132;28;20394;-82
2022/06/12 03:54:23;;;;;;;12.93;2.50;;;11.30;99.90;;;;;;4995143;28;20101;-79
2022/06/12 03:59:48;;;;;;;11.35;2.55;;;11.40;99.90;;;;;;4995011;28;20116;-79
2022/06/12 04:02:19;;;;;;;7.22;2.10;;;11.30;99.90;;;;;;5011108;28;20143;-79
2022/06/12 04:04:45;;;;;;;;;;;11.40;99.90;;;;;;5011555;28;20384;-79
2022/06/12 04:07:14;;;;;;;10.73;2.53;;;11.40;99.90;;;;;;5035949;28;19928;-79
2022/06/12 04:09:46;;;;;;;12.20;2.50;;;11.50;99.90;;;;;;5052021;28;20061;-79
2022/06/12 04:12:25;;;;;;;7.82;2.08;;;11.30;99.90;;;;;;5051898;28;20087;-79
2022/06/12 04:15:33;;;;;;;9.98;2.63;;;11.60;99.90;;;;;;5051813;28;20053;-79
2022/06/12 04:18:00;;;;;;;12.75;3.22;;;11.60;99.90;;;;;;5010863;28;20060;-80
2022/06/12 04:20:47;;;;;;;12.25;2.28;;;11.70;99.90;;;;;;4994678;28;20041;-80
2022/06/12 04:23:19;;;;;;;8.27;2.30;;;11.70;99.90;;;;;;5010826;28;20415;-80
2022/06/12 04:25:52;;;;;;;9.77;2.33;;;11.80;99.90;;;;;;5010777;28;20130;-79
2022/06/12 04:28:41;;;;;;;11.45;3.00;;;11.90;99.90;;;;;;4994495;28;20058;-79
2022/06/12 04:31:15;;;;;;;11.13;2.53;;;12.00;99.90;;;;;;4978474;28;20045;-79
2022/06/12 04:34:02;;;;;;;6.80;2.50;;;12.00;99.90;;;;;;5010695;28;20065;-79
2022/06/12 04:36:28;;;;;;;8.05;2.45;;;12.10;99.90;;;;;;4994329;28;20057;-80
2022/06/12 04:38:53;;;;;;;10.50;2.45;;;12.20;99.90;;;;;;4994070;28;20054;-79
2022/06/12 04:41:22;;;;;;;9.23;2.35;;;12.20;99.90;;;;;;4994050;28;20491;-79
2022/06/12 04:43:48;;;;;;;11.05;3.05;;;12.30;99.90;;;;;;4978215;28;20133;-79
2022/06/12 04:46:14;;;;;;;10.98;2.80;;;12.40;99.90;;;;;;5010529;28;20188;-79
2022/06/12 04:48:42;;;;;;;10.55;3.17;;;12.40;99.90;;;;;;4994237;28;20054;-79
2022/06/12 04:51:10;;;;;;;15.77;3.20;;;12.50;99.90;;;;;;4994124;28;20049;-79
2022/06/12 04:53:36;;;;;;;11.65;2.78;;;12.60;99.90;;;;;;4980271;28;20058;-79
2022/06/12 04:56:03;;;;;;;10.30;3.00;;;12.70;99.90;;;;;;5052302;28;20112;-79
2022/06/12 04:58:29;;;;;;;15.70;3.25;;;12.70;99.90;;;;;;5034992;28;20047;-80
2022/06/12 05:00:55;;;;;;;10.93;2.80;;;13.00;99.90;;;;;;5052724;28;20143;-79
2022/06/12 05:03:21;;;;;;;13.05;3.15;;;13.00;99.90;;;;;;5055357;28;20041;-79
2022/06/12 05:05:47;;;;;;;13.70;2.80;;;13.00;99.90;;;;;;5038362;28;20087;-80
2022/06/12 05:08:14;;;;;;;14.27;2.78;;;13.00;99.90;;;;;;5055025;28;20179;-79
2022/06/12 05:10:40;;;;;;;11.68;2.88;;;13.10;99.90;;;;;;5055104;28;20049;-79
2022/06/12 05:13:06;;;;;;;12.85;2.92;;;13.10;99.90;;;;;;5056228;28;20136;-78
2022/06/12 05:15:32;;;;;;;16.05;3.60;;;13.20;99.90;;;;;;5056058;28;20120;-80
2022/06/12 05:17:59;;;;;;;15.55;3.40;;;13.30;99.90;;;;;;5054857;28;20549;-80
2022/06/12 05:20:29;;;;;;;10.63;2.95;;;13.40;99.90;;;;;;5056073;28;20088;-79
2022/06/12 05:22:55;;;;;;;15.05;2.90;;;13.50;99.90;;;;;;5054755;28;20444;-79
2022/06/12 05:25:23;;;;;;;14.02;2.90;;;13.50;99.90;;;;;;5055253;28;20045;-79
2022/06/12 05:27:49;;;;;;;14.05;3.17;;;13.60;99.90;;;;;;5055949;28;20119;-79
2022/06/12 05:30:20;;;;;;;18.88;3.63;;;13.70;99.90;;;;;;5038265;28;20110;-79
2022/06/12 05:32:48;;;;;;;12.27;3.03;;;13.80;99.90;;;;;;5037981;28;20053;-79
2022/06/12 05:35:14;;;;;;;17.15;2.85;;;13.90;99.90;;;;;;5038036;28;20041;-79
2022/06/12 05:37:40;;;;;;;18.08;3.90;;;13.90;99.90;;;;;;5054219;28;20471;-81
2022/06/12 05:40:12;;;;;;;14.27;3.00;;;14.00;99.90;;;;;;5038083;28;20144;-79
2022/06/12 05:42:39;;;;;;;14.15;3.47;;;14.10;99.90;;;;;;5054777;28;20079;-79
2022/06/12 05:45:08;;;;;;;18.00;3.22;;;14.20;99.90;;;;;;5055543;28;20048;-79
2022/06/12 05:47:34;;;;;;;18.52;3.40;;;14.40;99.90;;;;;;5055405;28;20379;-79
2022/06/12 05:50:00;;;;;;;19.23;3.42;;;14.50;99.90;;;;;;5054451;28;20053;-80
2022/06/12 05:52:25;;;;;;;18.48;3.70;;;14.60;99.90;;;;;;5054662;28;20060;-79
2022/06/12 05:54:51;;;;;;;11.38;3.15;;;14.80;99.90;;;;;;5054211;28;20060;-79
2022/06/12 05:57:17;;;;;;;11.00;3.10;;;14.90;99.90;;;;;;5037484;28;20045;-79
2022/06/12 05:59:43;;;;;;;17.00;3.20;;;15.10;99.90;;;;;;5055321;28;20095;-79
2022/06/12 06:02:08;;;;;;;15.57;3.30;;;15.20;99.90;;;;;;5055236;28;20056;-80
2022/06/12 06:04:34;;;;;;;15.82;3.70;;;15.20;99.90;;;;;;5037575;28;20045;-80
2022/06/12 06:07:01;;;;;;;16.48;3.38;;;15.30;99.90;;;;;;5053858;28;20486;-79
2022/06/12 06:09:28;;;;;;;16.88;3.50;;;15.40;99.90;;;;;;5054336;28;20088;-79
2022/06/12 06:11:54;;;;;;;14.95;3.08;;;15.60;99.90;;;;;;5053513;28;20041;-88
2022/06/12 06:14:21;;;;;;;15.52;3.90;;;15.70;99.90;;;;;;5053916;28;20401;-78
2022/06/12 06:16:46;;;;;;;23.05;4.38;;;15.70;99.90;;;;;;5037144;28;20041;-84
2022/06/12 06:19:13;;;;;;;15.55;3.50;;;15.70;99.90;;;;;;5054688;28;20055;-81
2022/06/12 06:21:40;;;;;;;25.88;4.10;;;15.70;99.90;;;;;;5053595;28;20127;-80
2022/06/12 06:24:08;;;;;;;16.85;3.72;;;15.80;99.90;;;;;;5054711;28;20051;-80
2022/06/12 06:26:33;;;;;;;16.50;3.58;;;15.90;99.90;;;;;;5049816;28;20036;-81
2022/06/12 06:28:59;;;;;;;18.42;4.40;;;16.10;99.90;;;;;;5029416;28;20418;-79
2022/06/12 06:31:25;;;;;;;18.55;4.15;;;16.20;99.90;;;;;;5036795;28;20041;-85
2022/06/12 06:33:51;;;;;;;18.52;3.92;;;16.30;99.90;;;;;;5035638;28;20107;-79
2022/06/12 06:36:18;;;;;;;18.27;3.80;;;16.40;99.90;;;;;;5037968;28;20050;-80
2022/06/12 06:38:45;;;;;;;21.92;4.47;;;16.50;99.90;;;;;;5037112;28;20060;-79
2022/06/12 06:41:12;;;;;;;18.13;4.00;;;16.60;99.90;;;;;;5044026;28;20057;-79
2022/06/12 06:46:27;;;;;;;20.02;4.50;;;17.30;99.90;;;;;;5029073;28;20398;-81
2022/06/12 06:48:52;;;;;;;23.15;4.18;;;17.80;99.90;;;;;;5033820;28;20057;-80
2022/06/12 06:51:18;;;;;;;18.52;4.10;;;18.20;99.90;;;;;;4996432;28;20108;-81
2022/06/12 06:53:44;;;;;;;23.80;4.50;;;18.40;99.90;;;;;;4998015;28;20049;-81
2022/06/12 06:56:10;;;;;;;19.30;4.38;;;18.90;99.90;;;;;;4997487;28;20479;-81
2022/06/12 06:58:36;;;;;;;18.85;3.83;;;19.20;99.90;;;;;;4996973;28;20468;-81
2022/06/12 07:01:03;;;;;;;21.40;4.00;;;19.50;99.90;;;;;;5013029;28;20123;-85
2022/06/12 07:03:30;;;;;;;20.20;3.95;;;19.90;99.90;;;;;;5013752;28;20050;-82
2022/06/12 07:05:59;;;;;;;23.10;3.60;;;20.30;99.90;;;;;;5014652;28;20057;-80
2022/06/12 07:08:26;;;;;;;20.50;4.13;;;20.60;99.90;;;;;;5014099;28;20057;-87
2022/06/12 07:10:53;;;;;;;15.88;3.72;;;20.90;99.90;;;;;;5012428;28;20064;-81
2022/06/12 07:13:19;;;;;;;17.38;3.53;;;21.40;99.90;;;;;;5011332;28;20495;-85
2022/06/12 07:15:46;;;;;;;19.92;4.25;;;21.80;99.90;;;;;;4995839;28;20458;-83
2022/06/12 07:18:12;;;;;;;19.30;4.03;;;22.10;99.90;;;;;;4995588;28;20054;-82
2022/06/12 07:20:45;;;;;;;15.38;4.03;;;22.10;99.90;;;;;;4995379;28;20073;-82
2022/06/12 07:23:11;;;;;;;13.93;3.78;;;22.30;99.90;;;;;;5020555;28;20107;-81
2022/06/12 07:25:43;;;;;;;15.23;3.47;;;22.50;99.90;;;;;;5033625;28;20046;-82
2022/06/12 07:28:09;;;;;;;17.10;3.72;;;22.90;99.90;;;;;;5033710;28;20049;-82
2022/06/12 07:30:35;;;;;;;18.10;3.65;;;23.30;99.90;;;;;;5033800;28;20049;-81
2022/06/12 07:33:01;;;;;;;17.75;3.72;;;23.30;99.90;;;;;;5032485;28;20088;-82
2022/06/12 07:35:27;;;;;;;15.35;3.80;;;23.30;99.90;;;;;;5032633;28;20049;-83
2022/06/12 07:37:53;;;;;;;18.95;4.22;;;23.40;99.90;;;;;;5033722;28;20072;-81
2022/06/12 07:40:22;;;;;;;19.48;3.15;;;23.70;98.10;;;;;;5033691;28;20041;-81
2022/06/12 07:42:48;;;;;;;14.18;3.55;;;24.30;95.90;;;;;;5033472;28;20115;-85
2022/06/12 07:45:15;;;;;;;18.08;3.60;;;24.70;92.70;;;;;;5033565;28;20089;-82
2022/06/12 07:47:42;;;;;;;20.55;4.05;;;24.90;92.20;;;;;;5033053;28;20051;-82
2022/06/12 07:50:08;;;;;;;14.98;3.72;;;24.80;91.60;;;;;;5033681;28;20402;-82
2022/06/12 07:52:38;;;;;;;18.10;3.60;;;24.60;92.00;;;;;;5032382;28;20053;-81
2022/06/12 07:55:06;;;;;;;19.92;4.07;;;24.30;92.60;;;;;;5033173;28;20045;-81
2022/06/12 07:57:32;;;;;;;15.57;3.90;;;24.20;94.60;;;;;;5032164;28;20068;-82
2022/06/12 07:59:58;;;;;;;18.83;3.95;;;24.00;94.60;;;;;;5015790;28;20055;-82
2022/06/12 08:02:24;;;;;;;12.32;3.33;;;23.90;94.70;;;;;;5032078;28;20050;-82
2022/06/12 08:04:49;;;;;;;18.77;3.72;;;24.30;93.60;;;;;;5032178;28;20483;-81
2022/06/12 08:07:15;;;;;;;15.07;3.83;;;24.90;89.50;;;;;;5033066;28;20049;-83
2022/06/12 08:09:41;;;;;;;16.23;4.10;;;25.80;80.90;;;;;;5032217;28;20049;-82
2022/06/12 08:12:07;;;;;;;12.82;3.53;;;25.90;74.10;;;;;;5031859;28;20050;-81
2022/06/12 08:14:33;;;;;;;17.13;4.35;;;25.50;76.90;;;;;;5032777;28;20045;-83
2022/06/12 08:16:58;;;;;;;12.20;3.75;;;24.90;86.10;;;;;;5032853;28;20048;-82
2022/06/12 08:22:09;;;;;;;15.27;4.28;;;25.00;84.80;;;;;;5032354;28;20088;-83
2022/06/12 08:24:37;;;;;;;15.10;3.65;;;25.50;78.50;;;;;;5015478;28;20057;-82
2022/06/12 08:27:03;;;;;;;12.50;3.28;;;25.90;72.70;;;;;;5015757;28;20046;-82
2022/06/12 08:29:29;;;;;;;15.00;3.40;;;26.20;70.60;;;;;;5033110;28;20135;-82
2022/06/12 08:31:58;;;;;;;13.68;4.00;;;26.70;68.70;;;;;;5031885;28;20483;-82
2022/06/12 08:34:46;;;;;;;14.70;3.90;;;27.20;65.50;;;;;;5031692;28;20087;-82
2022/06/12 08:37:18;;;;;;;17.38;3.88;;;27.10;66.00;;;;;;5013867;28;20555;-81
2022/06/12 08:39:45;;;;;;;14.00;3.60;;;27.00;66.30;;;;;;5032551;28;20053;-83
2022/06/12 08:42:19;;;;;;;14.32;3.58;;;27.00;66.80;;;;;;5031579;28;20136;-82
2022/06/12 08:45:00;;;;;;;17.30;3.53;;;26.90;65.10;;;;;;5032481;28;20479;-82
2022/06/12 08:47:31;;;;;;;18.02;4.20;;;26.50;65.80;;;;;;5032577;28;20049;-82
2022/06/12 08:50:19;;;;;;;11.13;3.03;;;26.30;68.40;;;;;;5031290;28;20056;-82
2022/06/12 08:52:57;;;;;;;11.60;3.30;;;26.50;69.10;;;;;;5014781;28;20061;-83
2022/06/12 08:55:54;;;;;;;19.90;3.83;;;26.90;62.40;;;;;;5014675;28;20053;-82
2022/06/12 08:58:32;;;;;;;13.10;3.13;;;27.20;62.60;;;;;;4990756;28;20066;-83
2022/06/12 09:00:59;;;;;;;14.90;2.88;;;27.80;59.40;;;;;;4958756;28;20077;-83
2022/06/12 09:03:31;;;;;;;13.27;3.00;;;28.10;58.40;;;;;;4990867;28;20062;-82
2022/06/12 09:06:03;;;;;;;10.98;2.90;;;28.40;56.80;;;;;;4975121;28;20567;-84
2022/06/12 09:08:35;;;;;;;12.98;2.60;;;28.50;56.40;;;;;;4960283;28;20501;-83
2022/06/12 09:11:18;;;;;;;14.07;3.05;;;28.80;55.20;;;;;;4975553;28;20086;-84
2022/06/12 09:13:56;;;;;;;12.88;2.80;;;29.30;54.30;;;;;;4975788;28;20073;-83
2022/06/12 09:16:22;;;;;;;11.60;3.15;;;30.00;53.80;;;;;;4975264;28;20059;-83
2022/06/12 09:19:18;;;;;;;12.63;3.22;;;30.30;52.50;;;;;;4975602;28;20499;-83
2022/06/12 09:22:09;;;;;;;13.82;3.17;;;30.40;51.70;;;;;;4975517;28;20065;-83
2022/06/12 09:25:05;;;;;;;8.98;2.90;;;30.60;49.00;;;;;;4975392;28;20078;-84
2022/06/12 09:27:58;;;;;;;7.22;2.55;;;30.40;48.80;;;;;;4976335;28;20404;-83
2022/06/12 09:30:49;;;;;;;12.60;3.08;;;30.40;49.50;;;;;;4975723;28;20054;-83
2022/06/12 09:33:29;;;;;;;11.57;3.05;;;30.70;48.60;;;;;;4975643;28;20054;-83
2022/06/12 09:36:28;;;;;;;16.15;3.45;;;30.50;48.50;;;;;;5014247;28;20488;-83
2022/06/12 09:39:26;;;;;;;9.88;2.78;;;30.30;48.80;;;;;;5031913;28;20064;-84
2022/06/12 09:42:20;;;;;;;11.00;3.10;;;29.60;49.90;;;;;;5024597;28;20076;-84
2022/06/12 09:44:52;;;;;;;11.23;2.90;;;29.60;50.60;;;;;;5031916;28;20062;-83
2022/06/12 09:47:45;;;;;;;14.02;3.20;;;30.10;50.60;;;;;;5032301;28;20075;-84
2022/06/12 09:50:26;;;;;;;14.70;3.05;;;30.30;50.30;;;;;;5035972;28;20136;-83
2022/06/12 09:52:57;;;;;;;13.55;2.70;;;30.60;49.30;;;;;;5019221;28;20061;-84
2022/06/12 09:55:34;;;;;;;7.95;2.28;;;30.00;48.00;;;;;;5035461;28;20136;-83
2022/06/12 09:58:14;;;;;;;14.43;2.40;;;28.40;49.00;;;;;;5034545;28;20046;-83
2022/06/12 10:00:47;;;;;;;9.88;2.63;;;26.70;52.50;;;;;;5035185;28;20041;-82
2022/06/12 10:03:45;;;;;;;8.02;2.17;;;25.70;56.40;;;;;;5018612;28;20092;-83
2022/06/12 10:06:35;;;;;;;7.80;2.03;;;26.80;54.40;;;;;;4994410;28;20069;-84
2022/06/12 10:09:09;;;;;;;6.20;1.70;;;27.30;53.10;;;;;;4962022;28;20046;-85
2022/06/12 10:11:41;;;;;;;8.68;2.00;;;28.10;51.80;;;;;;4978449;28;20066;-83
2022/06/12 10:14:12;;;;;;;6.80;1.85;;;28.90;50.10;;;;;;4978114;28;20527;-83
2022/06/12 10:16:42;;;;;;;6.75;1.77;;;29.60;48.20;;;;;;4977565;28;20578;-82
2022/06/12 10:19:12;;;;;;;5.95;1.70;;;30.10;45.00;;;;;;4993941;28;20133;-83
2022/06/12 10:21:42;;;;;;;7.22;2.03;;;30.10;44.90;;;;;;4977918;28;20051;-83
2022/06/12 10:24:10;;;;;;;6.07;1.85;;;29.80;45.60;;;;;;4961950;28;20073;-83
2022/06/12 10:26:36;;;;;;;7.57;1.83;;;30.00;46.20;;;;;;4977895;28;20526;-83
2022/06/12 10:29:14;;;;;;;4.82;1.60;;;30.20;45.70;;;;;;4961861;28;20137;-83
2022/06/12 10:31:54;;;;;;;10.40;1.88;;;30.50;43.40;;;;;;4977191;28;20049;-83
2022/06/12 10:34:23;;;;;;;12.93;2.00;;;30.70;44.10;;;;;;4993454;28;20142;-83
2022/06/12 10:36:50;;;;;;;7.67;2.20;;;31.20;44.80;;;;;;4961289;28;20050;-84
2022/06/12 10:39:22;;;;;;;9.13;1.80;;;31.70;43.50;;;;;;4977144;28;20097;-84
2022/06/12 10:42:02;;;;;;;6.32;1.92;;;31.70;42.90;;;;;;5004086;28;20064;-83
2022/06/12 10:44:54;;;;;;;7.65;1.73;;;30.90;44.10;;;;;;5033735;28;20057;-84
2022/06/12 10:47:29;;;;;;;5.65;1.75;;;30.80;44.60;;;;;;4977828;28;20101;-83
2022/06/12 10:50:19;;;;;;;5.97;1.73;;;30.90;44.20;;;;;;4985934;28;20599;-83
2022/06/12 10:52:51;;;;;;;;;;;31.10;43.00;;;;;;4996093;28;20069;-83
2022/06/12 10:55:34;;;;;;;7.07;1.95;;;30.80;41.90;;;;;;5012379;28;19921;-83
2022/06/12 10:58:44;;;;;;;5.82;1.50;;;30.50;43.70;;;;;;4993821;28;20089;-83
2022/06/12 11:01:47;;;;;;;6.43;1.73;;;30.40;42.90;;;;;;4938107;29;20055;-84
2022/06/12 11:04:51;;;;;;;3.08;1.17;;;30.30;42.70;;;;;;4912780;29;20063;-83
2022/06/12 11:07:55;;;;;;;7.70;2.03;;;30.60;42.00;;;;;;4918742;29;20087;-84
2022/06/12 11:10:45;;;;;;;5.30;1.65;;;30.60;41.80;;;;;;4860013;29;20050;-85
2022/06/12 11:13:49;;;;;;;7.63;2.08;;;30.60;41.90;;;;;;4863114;29;20071;-82
2022/06/12 11:16:27;;;;;;;4.15;1.35;;;30.40;41.60;;;;;;4857521;29;20055;-84
2022/06/12 11:19:22;;;;;;;8.10;1.58;;;30.50;40.20;;;;;;4879072;29;20476;-85
2022/06/12 11:22:15;;;;;;;5.35;1.20;;;30.50;39.80;;;;;;4825858;29;20062;-84
2022/06/12 11:24:59;;;;;;;4.50;1.48;;;30.40;41.10;;;;;;4815653;29;20058;-84
2022/06/12 11:27:33;;;;;;;3.38;1.27;;;30.70;42.70;;;;;;4826447;29;20065;-84
2022/06/12 11:29:58;;;;;;;6.57;1.40;;;30.90;40.90;;;;;;4825065;29;20060;-84
2022/06/12 11:33:06;;;;;;;5.05;1.55;;;30.90;39.20;;;;;;4808701;29;20487;-87
2022/06/12 11:35:42;;;;;;;4.35;1.77;;;30.70;37.80;;;;;;4824340;29;20445;-83
2022/06/12 11:38:35;;;;;;;6.95;1.60;;;30.40;40.30;;;;;;4866569;29;20061;-83
2022/06/12 11:41:27;;;;;;;3.95;1.10;;;30.80;39.80;;;;;;4896917;29;20067;-85
2022/06/12 11:44:21;;;;;;;5.90;1.23;;;31.10;38.80;;;;;;4911619;29;20062;-83
2022/06/12 11:47:02;;;;;;;5.63;1.55;;;31.00;39.40;;;;;;4918414;29;20060;-86
2022/06/12 11:49:52;;;;;;;5.28;1.58;;;31.10;39.40;;;;;;4923174;29;20077;-88
2022/06/12 11:52:44;;;;;;;6.30;1.50;;;31.20;39.20;;;;;;4912623;29;20058;-84
2022/06/12 11:55:24;;;;;;;5.32;1.85;;;31.20;39.90;;;;;;4923791;29;20047;-83
2022/06/12 11:57:52;;;;;;;4.05;1.30;;;31.30;39.60;;;;;;4916790;28;20558;-83
2022/06/12 12:00:41;;;;;;;3.70;1.50;;;31.20;38.30;;;;;;4944980;28;20058;-84
2022/06/12 12:03:29;;;;;;;5.47;1.50;;;30.40;40.00;;;;;;4944833;28;20083;-82
2022/06/12 12:06:34;;;;;;;4.82;1.42;;;30.00;40.00;;;;;;4948544;28;20393;-84
2022/06/12 12:09:19;;;;;;;5.53;1.42;;;30.30;39.10;;;;;;4961160;28;20051;-83
2022/06/12 12:11:55;;;;;;;6.20;1.27;;;30.30;38.10;;;;;;4943109;28;20063;-84
2022/06/12 12:14:31;;;;;;;3.42;1.27;;;30.00;39.50;;;;;;4945991;28;20050;-84
2022/06/12 12:17:03;;;;;;;5.00;1.20;;;29.70;38.80;;;;;;4963420;28;20063;-84
2022/06/12 12:19:43;;;;;;;4.00;1.10;;;29.50;38.70;;;;;;4961164;28;21717;-86
2022/06/12 12:22:31;;;;;;;6.00;1.60;;;29.70;39.50;;;;;;4946276;28;20054;-86
2022/06/12 12:25:22;;;;;;;4.97;1.60;;;30.10;39.10;;;;;;4946035;29;20059;-83
2022/06/12 12:27:52;;;;;;;3.42;1.02;;;30.00;38.90;;;;;;4946073;29;20059;-83
2022/06/12 12:30:23;;;;;;;3.55;1.17;;;30.00;39.50;;;;;;4941009;28;20078;-84
2022/06/12 12:32:52;;;;;;;4.88;1.40;;;30.00;38.90;;;;;;4928856;29;20055;-88
2022/06/12 12:43:45;;;;;;;3.70;0.95;;;30.90;37.10;;;;;;4926081;29;20110;-84
2022/06/12 12:46:11;;;;;;;4.00;1.17;;;30.60;36.90;;;;;;4923198;29;20106;-84
2022/06/12 12:48:44;;;;;;;3.15;1.13;;;30.50;37.70;;;;;;4935273;29;20069;-82
2022/06/12 12:51:21;;;;;;;3.55;1.15;;;30.50;37.60;;;;;;4943047;29;20608;-83
2022/06/12 12:53:47;;;;;;;3.78;1.50;;;30.40;37.60;;;;;;4941610;29;20151;-87
2022/06/12 12:56:15;;;;;;;3.97;1.33;;;30.30;37.70;;;;;;4941280;29;20576;-83
2022/06/12 12:59:00;;;;;;;6.63;1.38;;;30.10;38.30;;;;;;4957009;28;20122;-83
2022/06/12 13:01:34;;;;;;;4.15;1.33;;;30.30;38.40;;;;;;4968014;28;20544;-82
2022/06/12 13:04:31;;;;;;;3.45;1.20;;;30.30;37.70;;;;;;5060865;28;20102;-81
2022/06/12 13:07:24;;;;;;;4.50;1.40;;;29.80;38.40;;;;;;5040460;28;20060;-83
2022/06/12 13:09:55;;;;;;;4.70;1.35;;;29.60;39.60;;;;;;5036295;28;20044;-83
2022/06/12 13:12:33;;;;;;;4.00;1.33;;;29.70;39.10;;;;;;5059134;28;20053;-84
2022/06/12 13:15:15;;;;;;;2.10;1.10;;;29.60;38.30;;;;;;5053123;28;21626;-84
2022/06/12 13:18:08;;;;;;;2.42;1.00;;;29.30;39.20;;;;;;5036031;28;20844;-83
2022/06/12 13:21:12;;;;;;;3.70;1.10;;;29.20;40.10;;;;;;5055525;28;20094;-82
2022/06/12 13:24:25;;;;;;;3.85;1.60;;;29.30;39.20;;;;;;5043862;28;20568;-84
2022/06/12 13:26:51;;;;;;;4.57;1.40;;;29.00;37.70;;;;;;5007973;28;20050;-82
2022/06/12 13:29:20;;;;;;;5.15;1.38;;;28.50;39.80;;;;;;4994445;28;20061;-82
2022/06/12 13:32:22;;;;;;;3.15;1.23;;;28.20;42.70;;;;;;4966477;28;20054;-83
2022/06/12 13:35:03;;;;;;;5.13;1.73;;;28.40;42.20;;;;;;5009708;28;20057;-82
2022/06/12 13:37:32;;;;;;;5.90;1.45;;;28.50;41.70;;;;;;4993873;28;20424;-84
2022/06/12 13:40:00;;;;;;;5.90;1.70;;;28.70;41.00;;;;;;4977325;28;20061;-83
2022/06/12 13:42:28;;;;;;;5.50;1.50;;;28.80;41.90;;;;;;4993970;28;20054;-88